Time;durP1;ratioP1;P1;durP2;ratioP2;P2;SDS_P1;SDS_P2;PMS_P1;PMS_P2;Temp;Humidity;BMP_temperature;BMP_pressure;BME280_temperature;BME280_humidity;BME280_pressure;Samples;Min_cycle;Max_cycle;Signal;HPM_P1;HPM_P2
2022/04/10 00:01:05;;;;;;;10.90;4.62;;;;;;;1.94;70.95;99670.06;2213129;79;21027;-79
2022/04/10 00:04:08;;;;;;;6.03;3.90;;;;;;;1.92;71.08;99675.92;2214454;79;21077;-80
2022/04/10 00:07:11;;;;;;;10.65;4.12;;;;;;;1.91;71.21;99675.06;2214433;79;21094;-80
2022/04/10 00:10:13;;;;;;;7.12;4.10;;;;;;;1.93;71.27;99678.39;2210851;79;21017;-80
2022/04/10 00:13:15;;;;;;;7.97;4.20;;;;;;;1.94;71.40;99677.91;2207054;79;21023;-80
2022/04/10 00:16:22;;;;;;;6.78;3.55;;;;;;;1.95;71.33;99678.29;2211802;79;21796;-81
2022/04/10 00:19:25;;;;;;;6.60;3.70;;;;;;;1.99;71.88;99677.08;2208970;79;21060;-80
2022/04/10 00:22:29;;;;;;;7.50;3.50;;;;;;;2.04;71.62;99681.47;2209707;79;21067;-80
2022/04/10 00:25:34;;;;;;;6.72;3.47;;;;;;;2.09;71.74;99681.11;2210659;79;21030;-79
2022/04/10 00:28:38;;;;;;;5.85;3.90;;;;;;;2.10;71.78;99680.15;2208229;79;21561;-80
2022/04/10 00:31:51;;;;;;;6.58;4.45;;;;;;;2.10;71.54;99674.43;2206340;80;21051;-80
2022/04/10 00:34:54;;;;;;;7.22;4.25;;;;;;;2.09;71.59;99679.32;2213760;79;21033;-80
2022/04/10 00:38:00;;;;;;;6.50;4.30;;;;;;;2.10;71.62;99677.05;2211272;79;21110;-80
2022/04/10 00:41:06;;;;;;;5.00;3.50;;;;;;;2.07;71.60;99687.77;2207870;79;21023;-80
2022/04/10 00:44:15;;;;;;;6.30;3.87;;;;;;;2.05;71.74;99687.05;2212482;80;21198;-80
2022/04/10 00:47:21;;;;;;;5.42;3.50;;;;;;;2.01;71.69;99676.48;2206035;79;21043;-79
2022/04/10 00:50:28;;;;;;;6.20;3.80;;;;;;;2.00;71.78;99679.58;2209674;79;22368;-80
2022/04/10 00:53:32;;;;;;;5.58;3.75;;;;;;;1.97;71.87;99682.91;2208316;79;21052;-78
2022/04/10 00:56:39;;;;;;;6.85;3.75;;;;;;;1.92;71.98;99678.05;2210264;79;20996;-80
2022/04/10 00:59:47;;;;;;;12.70;3.90;;;;;;;1.89;72.17;99681.40;2208449;79;21607;-80
2022/04/10 01:02:50;;;;;;;5.70;3.70;;;;;;;1.86;72.33;99673.77;2210395;79;21042;-80
2022/04/10 01:05:55;;;;;;;5.92;3.75;;;;;;;1.84;72.42;99671.77;2207269;79;21076;-80
2022/04/10 01:08:57;;;;;;;5.95;3.75;;;;;;;1.82;72.36;99679.72;2175175;79;21621;-79
2022/04/10 01:12:04;;;;;;;6.50;3.95;;;;;;;1.85;72.90;99691.73;2221754;78;21034;-80
2022/04/10 01:15:08;;;;;;;6.47;4.10;;;;;;;1.85;72.82;99689.95;2219779;78;21069;-80
2022/04/10 01:18:13;;;;;;;6.35;3.62;;;;;;;1.87;72.68;99691.97;2222633;78;21413;-79
2022/04/10 01:21:25;;;;;;;5.53;3.17;;;;;;;1.87;72.67;99695.06;2200666;79;21097;-80
2022/04/10 01:24:29;;;;;;;9.98;3.98;;;;;;;1.86;72.76;99697.31;2221267;78;21062;-79
2022/04/10 01:27:38;;;;;;;5.28;3.25;;;;;;;1.81;73.27;99691.16;2222265;78;21097;-80
2022/04/10 01:30:44;;;;;;;8.63;3.27;;;;;;;1.78;73.14;99694.84;2217753;79;21076;-79
2022/04/10 01:33:50;;;;;;;4.22;3.60;;;;;;;1.76;72.90;99701.97;2226182;79;21048;-80
2022/04/10 01:36:56;;;;;;;6.58;3.72;;;;;;;1.73;73.01;99700.91;2222110;78;21563;-79
2022/04/10 01:40:00;;;;;;;4.20;2.95;;;;;;;1.70;73.15;99702.94;2226569;79;21068;-79
2022/04/10 01:43:07;;;;;;;6.33;3.45;;;;;;;1.65;73.36;99709.83;2221310;78;21074;-79
2022/04/10 01:46:09;;;;;;;6.03;2.85;;;;;;;1.62;73.23;99711.37;2202228;78;21073;-79
2022/04/10 01:49:12;;;;;;;9.05;3.92;;;;;;;1.59;73.30;99722.08;2221620;78;21015;-80
2022/04/10 01:52:16;;;;;;;5.10;3.50;;;;;;;1.56;73.40;99724.45;2228588;78;21088;-77
2022/04/10 01:55:26;;;;;;;6.10;3.83;;;;;;;1.55;73.86;99721.97;2231362;78;21104;-79
2022/04/10 01:58:33;;;;;;;10.55;3.98;;;;;;;1.50;73.54;99728.85;2228963;78;21015;-80
2022/04/10 02:01:39;;;;;;;7.50;3.83;;;;;;;1.50;73.72;99733.25;2202859;78;21015;-80
2022/04/10 02:04:41;;;;;;;8.85;4.03;;;;;;;1.47;73.73;99734.32;2227386;78;21003;-80
2022/04/10 02:07:47;;;;;;;5.78;3.75;;;;;;;1.47;73.72;99740.03;2231780;78;21068;-80
2022/04/10 02:10:50;;;;;;;6.60;4.20;;;;;;;1.50;73.92;99741.10;2217823;78;21052;-80
2022/04/10 02:13:57;;;;;;;8.80;3.87;;;;;;;1.48;73.99;99739.89;2212253;78;21632;-80
2022/04/10 02:17:01;;;;;;;9.20;4.22;;;;;;;1.47;73.89;99742.64;2208336;78;21848;-80
2022/04/10 02:20:05;;;;;;;6.22;4.47;;;;;;;1.45;74.20;99743.23;2210880;78;21053;-81
2022/04/10 02:23:13;;;;;;;6.45;3.98;;;;;;;1.44;74.29;99747.63;2207436;78;21532;-80
2022/04/10 02:26:16;;;;;;;6.95;3.87;;;;;;;1.43;74.06;99749.05;2206936;78;21022;-80
2022/04/10 02:29:22;;;;;;;7.25;4.50;;;;;;;1.42;74.11;99753.92;2210716;78;21076;-79
2022/04/10 02:32:30;;;;;;;6.75;4.28;;;;;;;1.39;74.18;99763.31;2211219;78;21084;-80
2022/04/10 02:35:34;;;;;;;6.53;4.20;;;;;;;1.37;74.24;99760.80;2213723;78;21112;-81
2022/04/10 02:38:37;;;;;;;7.78;4.33;;;;;;;1.36;74.33;99764.37;2208725;78;21013;-79
2022/04/10 02:41:46;;;;;;;5.20;4.37;;;;;;;1.37;74.57;99769.12;2210331;78;21204;-80
2022/04/10 02:44:49;;;;;;;8.85;4.30;;;;;;;1.36;74.50;99767.47;2215337;78;21099;-80
2022/04/10 02:47:52;;;;;;;7.37;4.40;;;;;;;1.33;74.54;99768.05;2204324;78;21046;-81
2022/04/10 02:50:59;;;;;;;5.80;4.65;;;;;;;1.30;74.64;99775.30;2210579;78;22342;-81
2022/04/10 02:54:07;;;;;;;9.88;4.60;;;;;;;1.26;74.73;99775.98;2208444;78;21015;-79
2022/04/10 02:57:09;;;;;;;7.70;4.50;;;;;;;1.24;74.84;99787.50;2214774;78;21039;-79
2022/04/10 03:00:12;;;;;;;9.38;4.75;;;;;;;1.22;74.90;99790.25;2212224;78;21043;-79
2022/04/10 03:03:18;;;;;;;8.38;5.17;;;;;;;1.25;75.16;99793.11;2209177;78;21299;-80
2022/04/10 03:06:25;;;;;;;7.80;5.78;;;;;;;1.29;75.55;99799.28;2210924;78;21069;-81
2022/04/10 03:09:25;;;;;;;8.05;5.42;;;;;;;1.30;75.47;99797.04;2209753;78;21562;-80
2022/04/10 03:12:30;;;;;;;7.97;5.75;;;;;;;1.32;75.33;99807.36;2209074;78;21078;-81
2022/04/10 03:15:36;;;;;;;8.00;5.87;;;;;;;1.30;75.55;99807.50;2182317;78;21041;-79
2022/04/10 03:18:44;;;;;;;11.70;5.72;;;;;;;1.29;75.58;99811.03;2209719;78;21269;-80
2022/04/10 03:21:45;;;;;;;6.92;5.80;;;;;;;1.31;75.81;99809.63;2210813;78;21058;-80
2022/04/10 03:24:48;;;;;;;7.42;5.45;;;;;;;1.33;75.84;99816.41;2211928;78;22168;-81
2022/04/10 03:27:54;;;;;;;9.63;5.45;;;;;;;1.36;75.93;99814.52;2213707;78;21025;-79
2022/04/10 03:30:59;;;;;;;8.13;6.20;;;;;;;1.39;75.67;99820.34;2208150;78;21058;-80
2022/04/10 03:34:03;;;;;;;8.43;6.45;;;;;;;1.42;75.68;99820.59;2214159;78;20999;-80
2022/04/10 03:37:07;;;;;;;9.33;5.60;;;;;;;1.43;75.80;99829.61;2214949;78;21078;-80
2022/04/10 03:40:11;;;;;;;8.83;5.75;;;;;;;1.44;76.11;99837.01;2210202;78;21200;-81
2022/04/10 03:43:13;;;;;;;9.53;5.70;;;;;;;1.46;75.87;99833.78;2213133;78;21014;-80
2022/04/10 03:46:20;;;;;;;6.62;5.35;;;;;;;1.48;76.11;99842.35;2207805;78;21595;-79
2022/04/10 03:49:25;;;;;;;9.40;5.90;;;;;;;1.48;75.84;99843.18;2208792;78;21159;-80
2022/04/10 03:52:29;;;;;;;6.87;4.83;;;;;;;1.49;75.90;99853.16;2210831;78;21478;-80
2022/04/10 03:55:35;;;;;;;8.70;5.72;;;;;;;1.46;76.14;99857.31;2210988;78;20997;-81
2022/04/10 03:58:40;;;;;;;8.10;4.90;;;;;;;1.44;75.83;99857.92;2212540;78;21067;-81
2022/04/10 04:01:45;;;;;;;6.93;5.20;;;;;;;1.42;76.13;99869.80;2208847;78;23054;-80
2022/04/10 04:04:53;;;;;;;8.53;5.60;;;;;;;1.41;75.87;99873.81;2208593;78;21063;-80
2022/04/10 04:08:00;;;;;;;9.35;5.10;;;;;;;1.38;76.00;99876.21;2206866;78;21090;-81
2022/04/10 04:11:06;;;;;;;6.37;4.95;;;;;;;1.37;75.84;99880.23;2209587;78;21027;-80
2022/04/10 04:14:14;;;;;;;7.90;5.22;;;;;;;1.34;76.17;99891.27;2207251;78;21043;-80
2022/04/10 04:17:17;;;;;;;7.90;5.30;;;;;;;1.36;76.14;99902.93;2210406;78;21069;-79
2022/04/10 04:20:23;;;;;;;6.28;5.33;;;;;;;1.39;76.00;99905.80;2211583;78;21063;-81
2022/04/10 04:23:29;;;;;;;5.97;5.37;;;;;;;1.41;76.23;99912.58;2208760;78;21089;-81
2022/04/10 04:26:34;;;;;;;5.60;4.72;;;;;;;1.43;76.53;99905.91;2210231;78;21600;-80
2022/04/10 04:29:38;;;;;;;8.95;5.58;;;;;;;1.47;76.44;99913.91;2208088;78;21581;-81
2022/04/10 04:32:44;;;;;;;7.85;5.50;;;;;;;1.48;76.37;99912.95;2210120;78;21066;-80
2022/04/10 04:35:48;;;;;;;6.20;4.45;;;;;;;1.51;76.19;99919.26;2210318;78;21085;-81
2022/04/10 04:38:56;;;;;;;8.80;4.95;;;;;;;1.54;76.19;99926.88;2216215;78;21075;-80
2022/04/10 04:41:57;;;;;;;7.62;4.97;;;;;;;1.54;76.15;99926.88;2210634;78;21028;-80
2022/04/10 04:45:02;;;;;;;7.47;5.28;;;;;;;1.56;76.06;99931.53;2209587;78;21030;-80
2022/04/10 04:48:08;;;;;;;8.90;4.50;;;;;;;1.58;75.87;99953.18;2208311;78;21067;-80
2022/04/10 04:51:15;;;;;;;6.70;4.75;;;;;;;1.59;76.08;99954.01;2207320;78;21613;-80
2022/04/10 04:54:19;;;;;;;6.78;4.70;;;;;;;1.61;76.00;99959.48;2206289;78;21081;-80
2022/04/10 04:57:23;;;;;;;8.10;5.45;;;;;;;1.63;75.99;99975.88;2214210;78;21053;-79
2022/04/10 05:00:27;;;;;;;9.78;4.67;;;;;;;1.66;75.93;99973.06;2209325;78;21039;-80
2022/04/10 05:03:39;;;;;;;5.70;4.25;;;;;;;1.74;76.06;99974.61;2209808;78;21646;-79
2022/04/10 05:06:43;;;;;;;6.45;4.50;;;;;;;2.11;76.09;99977.13;2211617;78;21030;-80
2022/04/10 05:09:50;;;;;;;4.83;4.30;;;;;;;2.65;75.67;99975.14;2212901;78;21043;-80
2022/04/10 05:12:54;;;;;;;7.72;4.62;;;;;;;3.12;75.11;99976.27;2226161;78;21085;-81
2022/04/10 05:15:59;;;;;;;6.28;4.92;;;;;;;3.43;74.17;99980.35;2226431;77;21073;-80
2022/04/10 05:19:05;;;;;;;7.25;4.30;;;;;;;3.49;73.80;99986.41;2226311;78;21608;-79
2022/04/10 05:22:11;;;;;;;6.80;4.15;;;;;;;3.91;73.29;99989.93;2230179;78;21598;-80
2022/04/10 05:25:14;;;;;;;8.38;4.53;;;;;;;4.31;72.80;99993.64;2231289;78;21087;-80
2022/04/10 05:28:18;;;;;;;7.47;4.15;;;;;;;4.63;72.44;100001.43;2229114;78;21094;-80
2022/04/10 05:31:25;;;;;;;4.87;4.28;;;;;;;5.10;71.31;99996.49;2235870;78;20979;-80
2022/04/10 05:34:30;;;;;;;6.17;4.05;;;;;;;5.33;70.63;100003.67;2204049;78;21352;-80
2022/04/10 05:37:37;;;;;;;8.68;4.25;;;;;;;5.60;70.46;100005.63;2220498;78;21081;-79
2022/04/10 05:40:39;;;;;;;5.35;3.92;;;;;;;5.81;68.74;100007.66;2228580;78;21080;-84
2022/04/10 05:43:41;;;;;;;10.63;3.70;;;;;;;6.01;67.94;100006.36;2231734;78;21523;-85
2022/04/10 05:46:45;;;;;;;8.38;4.42;;;;;;;6.21;67.47;100006.67;2227001;78;21069;-87
2022/04/10 05:49:49;;;;;;;9.45;4.30;;;;;;;6.38;67.57;100013.52;2231240;78;21070;-89
2022/04/10 05:52:56;;;;;;;7.25;3.55;;;;;;;6.64;65.92;100005.80;2228870;78;21057;-83
2022/04/10 05:56:03;;;;;;;7.55;3.92;;;;;;;6.76;66.59;100013.04;2227973;77;22262;-83
2022/04/10 05:59:06;;;;;;;7.17;3.95;;;;;;;6.97;66.88;100008.38;2227565;78;21613;-85
2022/04/10 06:02:08;;;;;;;5.28;3.83;;;;;;;6.89;64.66;100009.59;2228145;78;21072;-80
2022/04/10 06:05:10;;;;;;;8.30;3.90;;;;;;;6.64;64.94;100017.66;2226279;78;20961;-77
2022/04/10 06:08:13;;;;;;;7.25;4.17;;;;;;;6.34;65.42;100015.61;2234508;78;21109;-80
2022/04/10 06:11:15;;;;;;;6.87;4.37;;;;;;;6.06;65.64;100022.58;2230846;77;21085;-81
2022/04/10 06:14:18;;;;;;;7.22;4.70;;;;;;;5.86;66.06;100024.36;2226696;78;21097;-78
2022/04/10 06:17:20;;;;;;;12.28;4.67;;;;;;;5.68;65.77;100032.09;2224171;78;20972;-85
2022/04/10 06:20:22;;;;;;;8.35;5.42;;;;;;;5.45;66.07;100027.56;2228809;78;21117;-79
2022/04/10 06:23:24;;;;;;;6.33;4.37;;;;;;;5.34;66.28;100035.09;2224714;78;21078;-76
2022/04/10 06:26:28;;;;;;;10.20;4.42;;;;;;;5.73;66.06;100023.30;2222574;78;21054;-84
2022/04/10 06:29:31;;;;;;;10.05;4.37;;;;;;;6.15;65.78;100011.20;2228505;78;21526;-88
2022/04/10 06:32:37;;;;;;;10.23;4.70;;;;;;;6.32;64.96;100008.81;2226357;78;21104;-80
2022/04/10 06:35:39;;;;;;;6.55;4.28;;;;;;;6.80;64.94;100011.80;2228441;78;21570;-83
2022/04/10 06:38:41;;;;;;;7.25;5.15;;;;;;;6.94;64.44;100016.09;2203868;78;21603;-83
2022/04/10 06:41:51;;;;;;;11.38;4.80;;;;;;;6.84;64.15;100022.38;2225800;78;21088;-81
2022/04/10 06:45:16;;;;;;;8.85;4.40;;;;;;;6.67;63.75;100019.55;2227990;78;21201;-74
2022/04/10 06:48:40;;;;;;;10.85;5.15;;;;;;;6.14;63.39;100025.81;2228624;78;21098;-74
2022/04/10 06:51:51;;;;;;;8.28;4.78;;;;;;;5.61;64.24;100037.58;2223395;78;21641;-79
2022/04/10 06:54:58;;;;;;;8.20;4.55;;;;;;;5.34;65.04;100039.52;2227662;78;21019;-79
2022/04/10 06:58:09;;;;;;;11.60;5.33;;;;;;;5.05;65.23;100032.88;2224193;78;21537;-79
2022/04/10 07:01:14;;;;;;;7.80;4.55;;;;;;;4.84;65.74;100036.41;2225654;78;21026;-78
2022/04/10 07:04:28;;;;;;;10.60;5.40;;;;;;;4.64;66.24;100037.25;2200450;78;21046;-79
2022/04/10 07:07:37;;;;;;;8.85;5.17;;;;;;;4.41;66.80;100042.66;2190730;78;21060;-78
2022/04/10 07:10:42;;;;;;;10.10;6.35;;;;;;;4.31;67.32;100043.55;2222545;78;21030;-74
2022/04/10 07:13:47;;;;;;;10.65;5.20;;;;;;;4.29;67.65;100041.55;2208310;78;21597;-74
2022/04/10 07:16:54;;;;;;;9.63;5.35;;;;;;;4.37;67.99;100045.69;2184861;78;21014;-74
2022/04/10 07:20:02;;;;;;;9.95;4.50;;;;;;;4.49;67.91;100044.65;2210990;78;21595;-76
2022/04/10 07:26:31;;;;;;;11.60;5.00;;;;;;;4.89;67.52;100052.59;2211273;78;21086;-74
2022/04/10 07:29:43;;;;;;;11.20;5.15;;;;;;;5.02;67.73;100046.30;2208713;78;21052;-73
2022/04/10 07:32:56;;;;;;;8.85;4.03;;;;;;;5.06;67.00;100057.71;2209308;78;21015;-73
2022/04/10 07:36:02;;;;;;;6.33;4.28;;;;;;;5.13;66.61;100052.77;2205053;78;21043;-73
2022/04/10 07:39:10;;;;;;;9.13;4.60;;;;;;;5.22;66.23;100055.91;2182079;78;21073;-73
2022/04/10 07:42:21;;;;;;;6.58;3.35;;;;;;;5.17;65.98;100064.19;2210900;78;21090;-73
2022/04/10 07:48:49;;;;;;;7.22;3.50;;;;;;;5.27;65.77;100071.30;2204525;78;21046;-73
2022/04/10 07:52:04;;;;;;;7.80;3.40;;;;;;;5.59;65.70;100075.04;2182794;78;21119;-73
2022/04/10 07:55:30;;;;;;;5.22;3.10;;;;;;;5.73;65.22;100070.70;2203990;78;21063;-72
2022/04/10 07:58:39;;;;;;;7.20;3.17;;;;;;;6.19;65.15;100066.57;2148206;81;21063;-73
2022/04/10 08:01:48;;;;;;;6.05;3.60;;;;;;;6.25;64.57;100067.81;2074595;81;21545;-73
2022/04/10 08:04:54;;;;;;;7.12;3.17;;;;;;;6.24;64.14;100066.16;2097782;81;22337;-74
2022/04/10 08:07:59;;;;;;;6.80;3.55;;;;;;;6.17;62.92;100076.44;2092807;81;21084;-73
2022/04/10 08:11:06;;;;;;;5.45;3.00;;;;;;;6.43;63.84;100079.33;2121336;81;20993;-72
2022/04/10 08:14:14;;;;;;;3.45;2.58;;;;;;;7.12;63.32;100071.58;2146728;81;21079;-72
2022/04/10 08:17:21;;;;;;;5.50;2.25;;;;;;;7.69;62.09;100068.77;2143654;81;21075;-74
2022/04/10 08:20:33;;;;;;;3.85;2.17;;;;;;;8.02;60.63;100073.84;2111447;81;21016;-73
2022/04/10 08:23:42;;;;;;;10.25;3.35;;;;;;;7.97;58.96;100064.72;2148196;81;21047;-74
2022/04/10 08:27:33;;;;;;;4.87;3.12;;;;;;;8.03;58.99;100070.74;2114882;81;21033;-73
2022/04/10 08:30:39;;;;;;;5.62;2.75;;;;;;;8.57;58.74;100077.31;2113733;81;21565;-72
2022/04/10 08:33:52;;;;;;;9.30;3.30;;;;;;;8.34;58.02;100075.13;2149846;81;21034;-73
2022/04/10 08:37:02;;;;;;;4.95;2.35;;;;;;;8.21;58.19;100071.55;2152147;81;20993;-73
2022/04/10 08:40:07;;;;;;;4.37;2.15;;;;;;;7.94;56.67;100081.73;2149974;81;21023;-72
2022/04/10 08:43:17;;;;;;;5.03;2.50;;;;;;;7.53;56.81;100079.97;2150245;81;21029;-72
2022/04/10 08:46:26;;;;;;;6.58;2.98;;;;;;;7.10;57.34;100084.57;2153506;81;21057;-73
2022/04/10 08:49:31;;;;;;;5.37;2.40;;;;;;;6.66;57.19;100100.92;2154321;81;21013;-74
2022/04/10 08:52:43;;;;;;;6.70;2.45;;;;;;;6.29;58.24;100095.57;2149849;81;21022;-73
2022/04/10 08:55:51;;;;;;;4.53;2.52;;;;;;;6.04;59.18;100100.41;2146583;81;21100;-72
2022/04/10 08:58:57;;;;;;;9.83;3.17;;;;;;;5.99;59.72;100097.84;2196232;80;21104;-74
2022/04/10 09:02:01;;;;;;;4.30;3.15;;;;;;;6.06;59.33;100101.61;2186073;80;21578;-73
2022/04/10 09:05:06;;;;;;;6.12;2.62;;;;;;;6.13;59.31;100097.44;2191590;80;21084;-73
2022/04/10 09:08:19;;;;;;;8.30;2.83;;;;;;;6.13;59.14;100097.44;2189072;80;21088;-73
2022/04/10 09:11:21;;;;;;;5.22;2.20;;;;;;;6.05;59.64;100101.23;2192598;80;21004;-73
2022/04/10 09:14:31;;;;;;;6.70;2.42;;;;;;;6.00;60.07;100112.70;2187489;80;21500;-73
2022/04/10 09:17:34;;;;;;;8.90;2.92;;;;;;;6.01;59.73;100108.59;2189513;80;21063;-74
2022/04/10 09:20:43;;;;;;;21.42;12.95;;;;;;;6.13;59.87;100110.61;2186447;80;21021;-74
2022/04/10 09:23:59;;;;;;;6.42;2.83;;;;;;;6.26;59.78;100097.99;2183617;80;20969;-73
2022/04/10 09:27:06;;;;;;;6.08;2.70;;;;;;;6.43;59.52;100092.50;2190443;80;21518;-73
2022/04/10 09:30:12;;;;;;;12.90;4.65;;;;;;;6.53;59.12;100101.70;2161082;79;21048;-74
2022/04/10 09:33:20;;;;;;;9.28;3.33;;;;;;;6.55;59.03;100091.86;2163478;79;21575;-73
2022/04/10 09:36:38;;;;;;;11.85;4.67;;;;;;;6.60;58.72;100088.31;2159597;80;21073;-73
2022/04/10 09:39:41;;;;;;;9.93;2.75;;;;;;;6.74;58.97;100101.05;2164217;80;21007;-75
2022/04/10 09:42:52;;;;;;;4.90;2.25;;;;;;;6.82;56.85;100092.44;2160377;80;21096;-73
2022/04/10 09:45:57;;;;;;;3.37;1.92;;;;;;;6.74;56.23;100087.86;2167542;80;21029;-74
2022/04/10 09:49:03;;;;;;;9.93;3.35;;;;;;;6.74;55.78;100080.45;2164029;80;21050;-74
2022/04/10 09:52:11;;;;;;;7.53;2.47;;;;;;;6.77;56.01;100092.52;2162125;79;21565;-73
2022/04/10 09:55:36;;;;;;;10.45;2.27;;;;;;;6.72;55.67;100084.53;2160275;80;21060;-73
2022/04/10 09:58:41;;;;;;;7.40;3.20;;;;;;;6.84;56.19;100083.05;2165610;80;21061;-74
2022/04/10 10:01:43;;;;;;;7.20;3.02;;;;;;;6.96;55.98;100085.87;2135836;81;21051;-74
2022/04/10 10:04:47;;;;;;;7.72;2.80;;;;;;;6.92;56.47;100081.84;2161980;81;21494;-74
2022/04/10 10:07:58;;;;;;;5.35;2.60;;;;;;;6.93;56.00;100088.80;2163330;79;21074;-74
2022/04/10 10:11:02;;;;;;;10.70;2.77;;;;;;;6.90;55.97;100087.27;2166563;81;21077;-73
2022/04/10 10:14:05;;;;;;;6.15;2.50;;;;;;;6.87;55.87;100090.66;2165569;81;21112;-73
2022/04/10 10:17:08;;;;;;;6.33;2.40;;;;;;;6.92;55.93;100093.70;2160793;81;21038;-73
2022/04/10 10:20:11;;;;;;;5.85;2.95;;;;;;;7.01;55.57;100090.69;2162941;79;21090;-72
2022/04/10 10:23:14;;;;;;;11.68;2.58;;;;;;;7.13;55.79;100082.47;2160519;81;21003;-73
2022/04/10 10:26:33;;;;;;;11.30;2.67;;;;;;;7.16;55.31;100103.77;2166925;81;20968;-76
2022/04/10 10:29:58;;;;;;;4.72;2.20;;;;;;;7.17;54.16;100098.34;2162023;81;21039;-75
2022/04/10 10:33:21;;;;;;;3.70;1.62;;;;;;;7.54;55.00;100084.26;2166351;79;21043;-72
2022/04/10 10:36:26;;;;;;;6.78;2.62;;;;;;;8.18;53.44;100088.20;2167993;81;21053;-72
2022/04/10 10:39:35;;;;;;;9.98;2.85;;;;;;;8.16;53.16;100091.48;2162022;81;21055;-75
2022/04/10 10:42:44;;;;;;;5.17;2.50;;;;;;;7.99;52.59;100087.86;2161420;80;21089;-75
2022/04/10 10:45:50;;;;;;;7.75;2.90;;;;;;;7.88;52.65;100088.91;2166020;80;21034;-76
2022/04/10 10:49:17;;;;;;;5.80;2.98;;;;;;;7.73;53.44;100089.92;2160819;81;21033;-73
2022/04/10 10:52:19;;;;;;;6.70;2.70;;;;;;;7.66;53.45;100085.38;2166518;80;21082;-76
2022/04/10 10:55:20;;;;;;;8.10;2.27;;;;;;;7.96;54.03;100078.92;2164168;80;21011;-79
2022/04/10 10:58:32;;;;;;;5.87;1.92;;;;;;;8.19;53.27;100087.22;2167838;80;21010;-79
2022/04/10 11:01:38;;;;;;;2.87;1.45;;;;;;;8.30;52.53;100080.37;2166529;80;21044;-80
2022/04/10 11:04:44;;;;;;;10.30;4.40;;;;;;;8.20;52.11;100092.36;2160965;80;21066;-81
2022/04/10 11:07:51;;;;;;;6.78;2.37;;;;;;;8.12;52.38;100090.14;2162247;80;21018;-80
2022/04/10 11:11:04;;;;;;;4.30;2.08;;;;;;;8.16;52.37;100083.06;2161098;81;21017;-83
2022/04/10 11:14:28;;;;;;;6.33;2.62;;;;;;;8.05;50.91;100081.50;2156931;81;21055;-77
2022/04/10 11:17:32;;;;;;;6.03;2.35;;;;;;;7.78;51.68;100083.70;2164651;81;21059;-80
2022/04/10 11:20:34;;;;;;;7.75;2.85;;;;;;;7.71;52.72;100093.19;2165386;81;21027;-80
2022/04/10 11:23:40;;;;;;;8.90;3.08;;;;;;;8.04;53.29;100100.96;2165043;80;21569;-78
2022/04/10 11:26:48;;;;;;;5.33;2.02;;;;;;;8.29;51.93;100083.51;2167541;80;21636;-78
2022/04/10 11:29:57;;;;;;;6.17;2.30;;;;;;;8.19;52.16;100098.61;2164424;80;21017;-78
2022/04/10 11:33:03;;;;;;;6.62;2.87;;;;;;;8.22;51.60;100093.52;2164481;81;21556;-84
2022/04/10 11:36:10;;;;;;;7.47;3.50;;;;;;;8.39;52.37;100092.73;2165930;81;21587;-80
2022/04/10 11:39:14;;;;;;;13.45;6.08;;;;;;;8.22;51.96;100098.34;2157909;80;21104;-86
2022/04/10 11:42:20;;;;;;;4.15;2.22;;;;;;;8.23;51.93;100101.31;2161653;80;21087;-85
2022/04/10 11:45:28;;;;;;;6.40;2.25;;;;;;;8.26;52.51;100104.14;2168150;80;21027;-84
2022/04/10 11:48:33;;;;;;;5.53;2.30;;;;;;;8.39;52.62;100100.66;2168297;80;21061;-84
2022/04/10 11:51:59;;;;;;;4.35;2.08;;;;;;;8.53;52.49;100105.86;2158077;80;21077;-81
2022/04/10 11:55:04;;;;;;;23.90;6.08;;;;;;;8.60;51.82;100094.19;2161625;80;21376;-82
2022/04/10 11:58:22;;;;;;;8.40;3.50;;;;;;;8.55;50.99;100099.11;2171331;80;21557;-80
2022/04/10 12:01:25;;;;;;;4.60;2.50;;;;;;;8.74;50.98;100108.17;2181613;80;21032;-82
2022/04/10 12:04:29;;;;;;;5.37;2.17;;;;;;;8.44;51.00;100116.88;2181173;80;21541;-81
2022/04/10 12:07:36;;;;;;;6.47;2.85;;;;;;;7.82;52.96;100139.20;2182985;80;21023;-82
2022/04/10 12:10:34;;;;;;;8.33;3.33;;;;;;;6.85;54.64;100154.62;2183273;80;21074;-85
2022/04/10 12:13:37;;;;;;;6.97;2.40;;;;;;;6.24;56.03;100153.95;2179269;80;21072;-84
2022/04/10 12:16:44;;;;;;;6.70;2.50;;;;;;;5.83;58.03;100147.92;2182855;80;21077;-83
2022/04/10 12:19:46;;;;;;;5.20;2.00;;;;;;;5.54;59.09;100143.05;2178767;80;21042;-83
2022/04/10 12:22:48;;;;;;;4.95;2.47;;;;;;;5.33;60.24;100142.63;2182131;80;21047;-85
2022/04/10 12:25:51;;;;;;;5.87;2.10;;;;;;;5.24;62.38;100132.91;2182746;80;21032;-82
2022/04/10 12:28:56;;;;;;;4.05;2.00;;;;;;;5.19;61.76;100126.38;2185146;80;21070;-84
2022/04/10 12:31:59;;;;;;;4.47;2.08;;;;;;;5.26;61.12;100124.38;2178842;80;21102;-86
2022/04/10 12:35:12;;;;;;;5.62;3.12;;;;;;;5.63;61.59;100123.80;2192889;80;21441;-87
2022/04/10 12:38:17;;;;;;;11.88;2.95;;;;;;;6.23;61.80;100121.98;2189335;80;20989;-80
2022/04/10 12:41:31;;;;;;;8.68;2.55;;;;;;;6.81;61.21;100119.77;2172516;80;21022;-87
2022/04/10 12:44:32;;;;;;;4.95;2.37;;;;;;;7.15;60.81;100113.50;2169523;80;21012;-89
2022/04/10 12:47:46;;;;;;;9.23;2.60;;;;;;;7.50;60.59;100113.77;2192038;80;21031;-88
2022/04/10 12:51:10;;;;;;;5.53;2.52;;;;;;;7.69;58.56;100098.31;2167418;80;21033;-82
2022/04/10 12:54:14;;;;;;;6.85;2.95;;;;;;;7.78;59.28;100102.69;2172988;80;20979;-77
2022/04/10 12:57:27;;;;;;;6.33;2.85;;;;;;;8.02;59.36;100103.41;2190948;80;21054;-83
2022/04/10 13:00:39;;;;;;;6.67;2.77;;;;;;;8.17;58.49;100092.67;2188079;80;21030;-89
2022/04/10 13:03:47;;;;;;;4.58;2.85;;;;;;;8.19;58.44;100088.04;2180076;80;21044;-83
2022/04/10 13:06:51;;;;;;;4.10;2.33;;;;;;;8.29;58.16;100094.58;2186154;80;20985;-84
2022/04/10 13:10:10;;;;;;;9.38;2.60;;;;;;;8.19;56.53;100089.86;2184924;80;21011;-85
2022/04/10 13:13:09;;;;;;;6.22;2.77;;;;;;;8.08;56.65;100087.80;2186833;80;21522;-86
2022/04/10 13:16:11;;;;;;;6.33;2.85;;;;;;;8.39;56.69;100084.80;2179628;80;21042;-82
2022/04/10 13:19:17;;;;;;;25.30;8.43;;;;;;;8.69;56.85;100085.32;2183251;80;21012;-83
2022/04/10 13:22:21;;;;;;;22.77;5.87;;;;;;;9.09;56.12;100074.63;2187379;80;20992;-84
2022/04/10 13:25:25;;;;;;;21.97;7.90;;;;;;;9.24;55.19;100074.89;2182557;80;21043;-91
2022/04/10 13:28:26;;;;;;;16.48;6.75;;;;;;;9.10;55.00;100078.95;2193814;80;21457;-85
2022/04/10 13:31:30;;;;;;;15.40;6.05;;;;;;;9.00;53.97;100067.64;2190071;80;21093;-79
2022/04/10 13:34:35;;;;;;;8.08;3.30;;;;;;;8.84;53.92;100077.63;2184341;80;21090;-77
2022/04/10 13:37:35;;;;;;;10.43;4.08;;;;;;;8.63;52.64;100080.16;2183285;80;21060;-80
2022/04/10 13:40:37;;;;;;;11.80;3.80;;;;;;;8.58;52.57;100081.61;2189475;80;21038;-78
2022/04/10 13:43:39;;;;;;;6.90;2.50;;;;;;;8.59;52.56;100081.94;2187528;80;21702;-86
2022/04/10 13:46:41;;;;;;;5.05;2.50;;;;;;;8.52;52.21;100085.20;2189043;80;21014;-84
2022/04/10 13:49:43;;;;;;;4.75;2.22;;;;;;;8.27;51.82;100084.14;2189117;80;21578;-85
2022/04/10 13:52:45;;;;;;;9.03;3.55;;;;;;;8.11;52.10;100087.14;2187652;80;20995;-91
2022/04/10 13:55:48;;;;;;;8.98;3.85;;;;;;;8.04;52.37;100086.92;2180382;80;21070;-85
2022/04/10 13:58:50;;;;;;;7.55;3.80;;;;;;;8.01;52.37;100082.77;2133676;81;21060;-79
2022/04/10 14:01:55;;;;;;;7.83;3.77;;;;;;;8.11;52.39;100086.67;2131924;82;22307;-84
2022/04/10 14:04:57;;;;;;;3.50;1.77;;;;;;;8.19;52.03;100096.47;2132813;82;21053;-76
2022/04/10 14:08:01;;;;;;;14.58;5.35;;;;;;;8.08;50.71;100090.91;2133919;82;20979;-85
2022/04/10 14:11:03;;;;;;;6.10;3.10;;;;;;;7.85;51.30;100094.03;2129912;82;21025;-84
2022/04/10 14:14:07;;;;;;;10.20;3.62;;;;;;;7.78;52.07;100086.84;2125076;82;21065;-86
2022/04/10 14:17:11;;;;;;;20.27;7.05;;;;;;;7.74;52.64;100098.67;2134156;82;21049;-86
2022/04/10 14:20:13;;;;;;;13.50;5.53;;;;;;;7.74;53.30;100098.67;2127433;82;21021;-78
2022/04/10 14:23:15;;;;;;;16.42;4.87;;;;;;;7.91;52.85;100096.53;2130191;82;21044;-80
2022/04/10 14:26:17;;;;;;;7.50;2.85;;;;;;;8.04;53.51;100102.28;2121490;82;21084;-81
2022/04/10 14:29:21;;;;;;;9.68;3.35;;;;;;;8.17;51.86;100103.73;2128573;82;21081;-82
2022/04/10 14:32:23;;;;;;;9.33;3.55;;;;;;;8.13;52.35;100090.47;2129678;82;21586;-80
2022/04/10 14:35:25;;;;;;;15.72;5.53;;;;;;;8.14;52.24;100092.13;2127559;82;21069;-81
2022/04/10 14:38:28;;;;;;;13.90;4.10;;;;;;;8.13;51.96;100097.08;2125822;82;21047;-80
2022/04/10 14:41:30;;;;;;;8.65;3.40;;;;;;;8.19;52.08;100092.00;2128747;82;22301;-79
2022/04/10 14:44:32;;;;;;;12.15;4.65;;;;;;;8.17;51.01;100089.20;2130643;82;21405;-79